Winchester, Missouri
Current Conditions -  °F | °C
As of 10:54 PM on Friday 28 Nov 2014 (Local Time) from KSUS Reporting Station
Clear Clear  
Wind Chill: 41°   Ceiling: Unl
Heat Index: 41°   Visibility: 10mi
Dew Point: 33°   Wind: 0mph
Humidity: 73%   Direction: NA
Pressure: 29.88"   Gusts: NA
Location:  38.5691°N, 90.5462°W
Report Text: KSUS 290454Z 00000KT 10SM CLR 05/01 A2988 RMK AO2 SLP123 T00500006
Loading
Personal Weather Stations






























Interactive Weather Map New forecast layout! Learn more

10-Day Weather Forecast

Advertisements
Track Severe Weather on mobile